Time;durP1;ratioP1;P1;durP2;ratioP2;P2;SDS_P1;SDS_P2;PMS_P1;PMS_P2;Temp;Humidity;BMP_temperature;BMP_pressure;BME280_temperature;BME280_humidity;BME280_pressure;Samples;Min_cycle;Max_cycle;Signal;HPM_P1;HPM_P2
2021/12/04 00:01:23;;;;;;;42.25;18.40;;;;;;;-2.80;58.30;96658.73;1672039;85;25860;-79
2021/12/04 00:03:47;;;;;;;120.30;47.67;;;;;;;-2.79;58.13;96653.80;1671376;85;27629;-79
2021/12/04 00:06:21;;;;;;;131.57;46.73;;;;;;;-2.81;58.32;96653.59;1671900;85;25750;-79
2021/12/04 00:08:45;;;;;;;109.48;40.85;;;;;;;-2.81;58.30;96651.78;1671236;85;25754;-79
2021/12/04 00:11:11;;;;;;;150.18;49.48;;;;;;;-2.83;58.30;96651.59;1671915;85;26683;-79
2021/12/04 00:13:37;;;;;;;99.58;33.78;;;;;;;-2.89;58.31;96652.98;1672058;85;25668;-79
2021/12/04 00:16:05;;;;;;;75.05;26.45;;;;;;;-2.88;58.25;96649.86;1672055;85;27418;-79
2021/12/04 00:18:31;;;;;;;106.97;33.67;;;;;;;-2.88;58.44;96652.50;1672011;85;25779;-80
2021/12/04 00:20:58;;;;;;;76.20;25.08;;;;;;;-2.89;58.43;96647.70;1672093;85;25491;-79
2021/12/04 00:23:24;;;;;;;40.98;14.65;;;;;;;-2.91;58.29;96647.87;1672071;85;26036;-79
2021/12/04 00:25:51;;;;;;;34.53;14.30;;;;;;;-2.99;58.16;96647.76;1672011;85;25774;-79
2021/12/04 00:28:17;;;;;;;35.23;14.73;;;;;;;-3.00;58.41;96647.90;1672092;85;27357;-79
2021/12/04 00:30:46;;;;;;;34.83;15.45;;;;;;;-2.97;58.46;96641.02;1671957;85;25704;-79
2021/12/04 00:33:18;;;;;;;27.50;12.70;;;;;;;-2.98;58.25;96636.70;1672135;85;26326;-79
2021/12/04 00:35:45;;;;;;;19.57;8.60;;;;;;;-2.96;58.25;96634.27;1671719;85;26759;-79
2021/12/04 00:43:19;;;;;;;14.98;7.87;;;;;;;-2.94;58.37;96640.73;1643106;86;26300;-80
2021/12/04 00:49:05;;;;;;;15.78;8.13;;;;;;;-2.88;58.18;96655.98;1643071;86;25710;-79
2021/12/04 00:51:21;;;;;;;44.67;15.38;;;;;;;-2.90;58.04;96639.47;1685245;85;25275;-79
2021/12/04 00:53:49;;;;;;;39.25;12.95;;;;;;;-2.89;58.11;96642.42;1672136;84;27358;-79
2021/12/04 00:56:15;;;;;;;36.77;13.28;;;;;;;-2.86;58.29;96635.53;1684980;85;25751;-79
2021/12/04 00:58:42;;;;;;;35.92;15.15;;;;;;;-2.86;58.29;96650.06;1672060;84;25815;-79
2021/12/04 01:01:08;;;;;;;41.00;16.48;;;;;;;-2.90;58.30;96651.36;1685179;85;26421;-79
2021/12/04 01:03:36;;;;;;;40.43;18.10;;;;;;;-2.90;58.43;96656.12;1671866;84;25822;-79
2021/12/04 01:06:05;;;;;;;70.72;22.17;;;;;;;-2.94;58.51;96651.30;1672083;84;27440;-79
2021/12/04 01:08:31;;;;;;;77.87;24.98;;;;;;;-2.94;58.45;96649.97;1685128;85;25725;-79
2021/12/04 01:10:58;;;;;;;26.17;11.05;;;;;;;-3.00;58.45;96649.22;1672145;84;26416;-79
2021/12/04 01:13:25;;;;;;;25.12;10.53;;;;;;;-3.13;58.38;96647.40;1685115;85;25948;-79
2021/12/04 01:15:52;;;;;;;38.40;15.23;;;;;;;-3.23;58.50;96646.13;1672107;84;25781;-79
2021/12/04 01:18:18;;;;;;;45.52;18.48;;;;;;;-3.28;58.79;96654.50;1685100;85;28181;-79
2021/12/04 01:20:45;;;;;;;49.20;18.05;;;;;;;-3.24;58.96;96643.14;1671960;84;25775;-79
2021/12/04 01:23:11;;;;;;;46.02;15.63;;;;;;;-3.21;58.73;96642.02;1685015;85;25697;-79
2021/12/04 01:25:39;;;;;;;43.38;16.73;;;;;;;-3.22;58.76;96641.67;1672105;85;26221;-79
2021/12/04 01:28:06;;;;;;;49.77;18.10;;;;;;;-3.31;58.75;96633.66;1685211;85;25731;-79
2021/12/04 01:30:34;;;;;;;56.80;18.52;;;;;;;-3.37;58.94;96638.18;1672105;85;26809;-79
2021/12/04 01:33:01;;;;;;;104.20;31.35;;;;;;;-3.38;58.81;96626.48;1685044;85;25814;-79
2021/12/04 01:35:27;;;;;;;58.13;19.10;;;;;;;-3.46;58.90;96628.50;1672144;85;25682;-79
2021/12/04 01:37:55;;;;;;;56.13;18.27;;;;;;;-3.47;59.06;96624.19;1685054;85;26033;-79
2021/12/04 01:40:22;;;;;;;35.08;16.00;;;;;;;-3.52;59.07;96623.81;1672698;84;26468;-80
2021/12/04 01:42:49;;;;;;;36.88;14.80;;;;;;;-3.53;59.20;96618.67;1638639;87;28297;-79
2021/12/04 01:45:19;;;;;;;34.43;15.03;;;;;;;-3.54;59.31;96615.20;1645557;87;26475;-79
2021/12/04 01:47:46;;;;;;;28.25;13.85;;;;;;;-3.59;59.36;96604.23;1672861;84;25760;-79
2021/12/04 01:50:13;;;;;;;30.60;12.68;;;;;;;-3.66;59.44;96595.24;1659029;86;26065;-79
2021/12/04 01:52:39;;;;;;;25.45;12.98;;;;;;;-3.68;59.59;96593.23;1659058;86;25678;-80
2021/12/04 01:55:08;;;;;;;27.00;12.53;;;;;;;-3.76;59.49;96590.48;1658988;86;27369;-79
2021/12/04 01:57:34;;;;;;;29.42;12.75;;;;;;;-3.80;59.70;96591.25;1658928;86;25265;-80
2021/12/04 02:00:03;;;;;;;36.05;16.40;;;;;;;-3.82;59.94;96596.31;1659015;86;25775;-79
2021/12/04 02:02:29;;;;;;;43.13;19.52;;;;;;;-3.83;59.79;96593.33;1658852;86;26188;-79
2021/12/04 02:04:56;;;;;;;80.00;26.17;;;;;;;-3.95;59.74;96590.02;1659120;86;25686;-80
2021/12/04 02:07:22;;;;;;;62.33;23.12;;;;;;;-4.06;59.92;96593.66;1659094;86;27373;-80
2021/12/04 02:09:49;;;;;;;43.58;17.07;;;;;;;-4.11;60.05;96587.99;1658946;86;25729;-80
2021/12/04 02:12:16;;;;;;;36.05;15.13;;;;;;;-4.16;60.20;96577.52;1659082;86;25827;-80
2021/12/04 02:14:42;;;;;;;31.97;14.68;;;;;;;-4.20;60.23;96578.27;1658964;86;26164;-79
2021/12/04 02:17:09;;;;;;;27.95;13.55;;;;;;;-4.23;60.32;96583.84;1659148;86;26361;-79
2021/12/04 02:19:36;;;;;;;30.50;14.47;;;;;;;-4.28;60.40;96580.78;1658964;86;27396;-79
2021/12/04 02:22:04;;;;;;;71.53;25.55;;;;;;;-4.37;60.36;96588.22;1658842;86;25693;-79
2021/12/04 02:24:31;;;;;;;43.42;17.07;;;;;;;-4.41;60.52;96581.06;1658945;86;25771;-80
2021/12/04 02:26:58;;;;;;;37.13;15.43;;;;;;;-4.48;60.62;96577.34;1659009;85;26041;-80
2021/12/04 02:29:24;;;;;;;81.08;35.65;;;;;;;-4.50;60.76;96562.63;1659032;86;25735;-80
2021/12/04 02:31:56;;;;;;;35.23;15.63;;;;;;;-4.49;60.75;96565.62;1658945;86;27342;-80
2021/12/04 02:34:26;;;;;;;19.95;9.85;;;;;;;-4.58;60.69;96563.31;1658779;86;25710;-80
2021/12/04 02:36:54;;;;;;;177.02;47.08;;;;;;;-4.60;60.81;96559.17;1659014;86;25782;-80
2021/12/04 02:39:30;;;;;;;140.43;36.38;;;;;;;-4.61;60.89;96554.88;1658936;86;26013;-80
2021/12/04 02:41:58;;;;;;;37.78;14.28;;;;;;;-4.62;60.89;96551.89;1665915;84;26478;-80
2021/12/04 02:44:35;;;;;;;29.02;12.58;;;;;;;-4.72;61.00;96539.56;1707043;83;28461;-80
2021/12/04 02:47:02;;;;;;;28.32;12.53;;;;;;;-4.76;61.15;96534.22;1706994;84;25742;-79
2021/12/04 02:49:29;;;;;;;25.35;11.80;;;;;;;-4.79;61.35;96529.22;1707226;83;25765;-80
2021/12/04 02:52:04;;;;;;;24.65;11.63;;;;;;;-4.78;61.33;96528.25;1707011;84;26036;-80
2021/12/04 02:54:32;;;;;;;30.27;12.00;;;;;;;-4.78;61.36;96528.25;1707134;84;25738;-80
2021/12/04 02:56:59;;;;;;;31.25;14.05;;;;;;;-4.91;61.35;96526.37;1707143;84;27032;-80
2021/12/04 02:59:26;;;;;;;35.20;13.70;;;;;;;-4.97;61.48;96520.36;1707011;84;25878;-80
2021/12/04 03:01:55;;;;;;;54.38;19.07;;;;;;;-5.01;61.55;96528.66;1707097;83;26337;-80
2021/12/04 03:04:24;;;;;;;34.30;14.23;;;;;;;-5.05;61.74;96529.41;1706888;83;28478;-80
2021/12/04 03:06:50;;;;;;;39.65;15.90;;;;;;;-5.10;61.75;96525.88;1707223;83;25708;-80
2021/12/04 03:09:18;;;;;;;62.85;21.97;;;;;;;-5.15;61.84;96517.55;1707145;83;28408;-80
2021/12/04 03:11:45;;;;;;;45.35;18.82;;;;;;;-5.20;61.96;96521.09;1707064;83;25810;-79
2021/12/04 03:14:12;;;;;;;33.67;15.95;;;;;;;-5.26;62.08;96516.84;1707013;83;25825;-80
2021/12/04 03:16:41;;;;;;;41.20;17.02;;;;;;;-5.27;62.22;96517.80;1707068;84;26836;-80
2021/12/04 03:19:08;;;;;;;37.55;15.32;;;;;;;-5.26;62.22;96516.84;1707170;84;25726;-81
2021/12/04 03:21:37;;;;;;;41.60;17.75;;;;;;;-5.25;62.28;96515.88;1707081;84;27536;-80
2021/12/04 03:24:07;;;;;;;44.73;18.25;;;;;;;-5.27;62.26;96498.91;1706945;83;26038;-80
2021/12/04 03:26:33;;;;;;;37.17;15.23;;;;;;;-5.32;62.29;96505.56;1706917;83;26361;-80
2021/12/04 03:29:04;;;;;;;31.87;14.73;;;;;;;-5.34;62.33;96495.66;1707076;83;26062;-80
2021/12/04 03:42:21;;;;;;;27.42;11.43;;;;;;;-5.33;62.27;96484.16;1711251;83;26054;-80
2021/12/04 03:44:49;;;;;;;35.80;12.80;;;;;;;-5.36;62.29;96489.69;1712703;83;25724;-80
2021/12/04 03:47:17;;;;;;;68.55;25.25;;;;;;;-5.37;62.31;96486.23;1712702;83;27468;-80
2021/12/04 03:49:43;;;;;;;86.05;27.82;;;;;;;-5.37;62.43;96493.28;1712574;83;25695;-80
2021/12/04 03:52:10;;;;;;;57.13;20.97;;;;;;;-5.39;62.39;96489.95;1712636;83;25742;-79
2021/12/04 03:54:38;;;;;;;39.13;16.02;;;;;;;-5.42;62.40;96490.22;1712649;83;26156;-80
2021/12/04 03:57:06;;;;;;;26.25;12.75;;;;;;;-5.47;62.37;96503.31;1712757;83;25750;-80
2021/12/04 03:59:35;;;;;;;27.82;12.20;;;;;;;-5.56;62.55;96492.29;1712634;83;28217;-80
2021/12/04 04:02:05;;;;;;;32.75;12.78;;;;;;;-5.57;62.56;96490.62;1711690;83;25848;-80
2021/12/04 04:04:32;;;;;;;27.52;11.18;;;;;;;-5.56;62.57;96481.77;1712430;83;25682;-80
2021/12/04 04:07:01;;;;;;;26.07;11.68;;;;;;;-5.60;62.63;96488.25;1712623;83;26758;-80
2021/12/04 04:09:28;;;;;;;24.32;10.58;;;;;;;-5.63;62.70;96486.37;1712693;83;25690;-80
2021/12/04 04:11:56;;;;;;;23.18;11.55;;;;;;;-5.65;62.76;96482.55;1712638;83;27418;-80
2021/12/04 04:14:24;;;;;;;23.10;11.03;;;;;;;-5.68;62.73;96482.84;1712626;83;25664;-81
2021/12/04 04:16:54;;;;;;;31.80;12.78;;;;;;;-5.72;62.74;96486.70;1712660;83;25785;-80
2021/12/04 04:19:21;;;;;;;26.93;12.00;;;;;;;-5.74;62.73;96483.36;1712638;83;26054;-80
2021/12/04 04:21:52;;;;;;;32.58;13.68;;;;;;;-5.73;62.79;96487.66;1712748;83;25696;-80
2021/12/04 04:24:17;;;;;;;42.25;16.37;;;;;;;-5.71;62.84;96483.11;1712422;83;27397;-80
2021/12/04 04:26:45;;;;;;;45.60;19.75;;;;;;;-5.67;62.82;96487.11;1712489;83;25746;-80
2021/12/04 04:29:13;;;;;;;31.77;15.08;;;;;;;-5.69;62.75;96478.55;1712671;83;25427;-80
2021/12/04 04:31:48;;;;;;;31.20;13.22;;;;;;;-5.71;62.81;96485.73;1712678;83;26052;-81
2021/12/04 04:34:23;;;;;;;28.95;13.40;;;;;;;-5.73;62.78;96479.77;1712691;83;25746;-80
2021/12/04 04:37:01;;;;;;;32.38;13.83;;;;;;;-5.73;62.80;96487.66;1712077;83;28212;-79
2021/12/04 04:39:41;;;;;;;32.67;13.68;;;;;;;-5.76;62.89;96481.34;1709111;83;25736;-80
2021/12/04 04:58:25;;;;;;;33.25;18.23;;;;;;;-5.86;63.06;96468.66;1707022;84;26797;-81
2021/12/04 05:11:36;;;;;;;34.65;15.65;;;;;;;-5.96;63.38;96458.63;1707093;84;25987;-80
2021/12/04 05:13:52;;;;;;;39.67;16.93;;;;;;;-6.02;63.54;96447.33;1704938;83;25771;-80
2021/12/04 05:16:21;;;;;;;30.00;11.75;;;;;;;-6.02;63.61;96448.16;1707102;83;28185;-81
2021/12/04 05:18:58;;;;;;;37.88;14.80;;;;;;;-5.97;63.65;96447.77;1706865;83;25682;-80
2021/12/04 05:21:19;;;;;;;41.37;15.30;;;;;;;-5.90;63.70;96448.89;1705503;83;25646;-80
2021/12/04 05:23:51;;;;;;;45.20;16.05;;;;;;;-5.85;63.63;96450.61;1707243;83;25978;-80
2021/12/04 05:26:27;;;;;;;48.00;16.97;;;;;;;-5.86;63.58;96453.72;1707241;83;25669;-80
2021/12/04 05:29:02;;;;;;;189.20;65.75;;;;;;;-5.86;63.60;96441.90;1707214;83;28664;-80
2021/12/04 05:31:27;;;;;;;104.97;50.60;;;;;;;-5.85;63.67;96444.05;1705905;83;25837;-80
2021/12/04 05:33:54;;;;;;;51.35;23.20;;;;;;;-5.88;63.64;96437.77;1707101;83;26277;-80
2021/12/04 05:36:21;;;;;;;83.20;27.10;;;;;;;-5.89;63.70;96435.62;1707182;83;26706;-80
2021/12/04 05:38:47;;;;;;;101.60;28.57;;;;;;;-5.86;63.72;96441.06;1707239;84;25734;-80
2021/12/04 05:41:16;;;;;;;109.67;29.07;;;;;;;-5.85;63.64;96434.84;1706786;83;27438;-80
2021/12/04 05:43:43;;;;;;;60.70;20.92;;;;;;;-5.83;63.68;96436.86;1707165;84;25831;-80
2021/12/04 05:46:14;;;;;;;69.80;34.10;;;;;;;-5.81;63.75;96427.05;1707107;84;25730;-81
2021/12/04 05:48:52;;;;;;;53.58;30.68;;;;;;;-5.81;63.67;96419.17;1706683;83;26057;-81
2021/12/04 05:56:19;;;;;;;40.45;18.00;;;;;;;-5.89;63.77;96422.48;1707094;84;25619;-80
2021/12/04 05:58:47;;;;;;;63.55;25.68;;;;;;;-5.86;63.75;96422.19;1707157;83;25797;-80
2021/12/04 06:01:15;;;;;;;50.10;21.95;;;;;;;-5.82;63.87;96412.25;1707115;83;26056;-80
2021/12/04 06:03:42;;;;;;;43.38;19.37;;;;;;;-5.80;63.96;96416.89;1707134;83;25774;-80
2021/12/04 06:06:09;;;;;;;42.85;17.90;;;;;;;-5.79;63.91;96406.69;1707196;83;27452;-80
2021/12/04 06:08:35;;;;;;;42.73;19.48;;;;;;;-5.78;63.98;96408.84;1707047;84;25669;-81
2021/12/04 06:11:02;;;;;;;90.80;33.65;;;;;;;-5.76;64.02;96402.48;1707118;84;25280;-80
2021/12/04 06:13:29;;;;;;;75.03;29.72;;;;;;;-5.75;64.12;96394.95;1706970;83;26091;-80
2021/12/04 06:15:56;;;;;;;64.00;24.90;;;;;;;-5.76;64.29;96391.97;1707298;84;25671;-80
2021/12/04 06:18:23;;;;;;;57.27;24.02;;;;;;;-5.75;64.39;96389.70;1706837;83;27649;-80
2021/12/04 06:23:35;;;;;;;78.40;26.75;;;;;;;-5.73;64.50;96375.94;1706919;84;25829;-80
2021/12/04 06:26:05;;;;;;;52.55;21.02;;;;;;;-5.67;64.56;96376.69;1679078;84;26823;-80
2021/12/04 06:28:32;;;;;;;47.15;19.60;;;;;;;-5.66;64.50;96378.36;1707108;83;25733;-80
2021/12/04 06:31:00;;;;;;;57.48;21.37;;;;;;;-5.66;64.56;96375.73;1706840;84;27403;-81
2021/12/04 06:33:28;;;;;;;47.67;21.77;;;;;;;-5.61;64.61;96369.59;1707043;84;25756;-80
2021/12/04 06:35:55;;;;;;;51.08;20.15;;;;;;;-5.55;64.57;96369.02;1707154;83;25769;-80
2021/12/04 06:38:22;;;;;;;44.18;17.52;;;;;;;-5.49;64.52;96363.23;1707109;83;26612;-80
2021/12/04 06:40:49;;;;;;;47.23;18.65;;;;;;;-5.45;64.58;96359.37;1707130;83;25368;-80
2021/12/04 06:43:17;;;;;;;52.45;21.00;;;;;;;-5.39;64.56;96358.45;1710676;83;27497;-80
2021/12/04 06:45:47;;;;;;;38.80;17.17;;;;;;;-5.36;64.69;96359.49;1712637;83;25797;-81
2021/12/04 06:48:17;;;;;;;50.67;21.25;;;;;;;-5.29;64.67;96354.01;1712549;83;25769;-80
2021/12/04 06:51:05;;;;;;;43.40;21.42;;;;;;;-5.31;64.73;96353.34;1712138;83;26618;-81
2021/12/04 06:56:00;;;;;;;36.10;16.15;;;;;;;-5.22;64.63;96356.45;1712783;83;27371;-80
2021/12/04 06:58:28;;;;;;;68.00;30.17;;;;;;;-5.13;64.59;96352.48;1712603;83;25841;-81
2021/12/04 07:00:55;;;;;;;73.40;32.95;;;;;;;-5.05;64.64;96353.08;1712714;83;25822;-81
2021/12/04 07:03:22;;;;;;;57.03;22.52;;;;;;;-5.01;64.61;96349.20;1669105;84;26076;-81
2021/12/04 07:05:49;;;;;;;78.37;30.32;;;;;;;-4.93;64.63;96340.11;1653190;85;25670;-81
2021/12/04 07:08:16;;;;;;;69.72;31.35;;;;;;;-4.88;64.56;96324.73;1639085;87;27572;-81
2021/12/04 07:10:43;;;;;;;47.50;21.17;;;;;;;-4.79;64.61;96329.13;1658931;86;25765;-81
2021/12/04 07:13:10;;;;;;;69.17;26.27;;;;;;;-4.73;64.39;96321.99;1669111;85;25763;-80
2021/12/04 07:15:37;;;;;;;51.13;23.25;;;;;;;-4.61;64.59;96319.18;1668929;85;26718;-80
2021/12/04 07:18:04;;;;;;;44.08;20.52;;;;;;;-4.49;64.52;96321.98;1653287;85;25971;-81
2021/12/04 07:20:31;;;;;;;29.80;15.95;;;;;;;-4.36;64.52;96328.58;1639137;87;27378;-81
2021/12/04 07:22:59;;;;;;;36.08;16.32;;;;;;;-4.21;64.18;96324.94;1658865;86;25707;-80
2021/12/04 07:25:27;;;;;;;24.45;11.95;;;;;;;-4.06;64.20;96319.52;1669157;85;25739;-81
2021/12/04 07:27:54;;;;;;;16.45;8.08;;;;;;;-3.92;64.02;96321.32;1653227;86;26003;-81
2021/12/04 07:30:24;;;;;;;14.38;7.58;;;;;;;-3.74;63.83;96319.03;1641669;87;25766;-80
2021/12/04 07:32:51;;;;;;;14.98;6.72;;;;;;;-3.53;63.31;96326.67;1668878;85;28198;-81
2021/12/04 07:35:19;;;;;;;17.15;9.45;;;;;;;-3.36;63.14;96320.55;1641614;85;25982;-81
2021/12/04 07:37:45;;;;;;;11.70;5.70;;;;;;;-3.15;62.94;96317.61;1668822;85;25696;-81
2021/12/04 07:40:12;;;;;;;10.58;5.62;;;;;;;-2.97;62.49;96308.31;1668854;85;26036;-81
2021/12/04 07:42:39;;;;;;;9.18;4.87;;;;;;;-2.80;62.41;96302.17;1665889;85;25697;-81
2021/12/04 07:45:07;;;;;;;10.43;5.67;;;;;;;-2.63;61.90;96302.58;1658671;86;28247;-82
2021/12/04 07:47:35;;;;;;;12.25;6.00;;;;;;;-2.46;61.41;96310.61;1658806;86;25700;-81
2021/12/04 07:50:07;;;;;;;12.45;5.50;;;;;;;-2.28;61.24;96300.77;1658941;86;25781;-81
2021/12/04 07:52:34;;;;;;;40.08;15.75;;;;;;;-2.14;61.18;96303.30;1659072;86;26070;-82
2021/12/04 07:55:01;;;;;;;39.70;15.38;;;;;;;-2.00;61.10;96304.84;1640369;87;25879;-81
2021/12/04 07:57:28;;;;;;;19.80;9.20;;;;;;;-1.89;60.87;96309.02;1643086;87;28184;-81
2021/12/04 07:59:55;;;;;;;19.02;8.20;;;;;;;-1.76;60.58;96296.15;1658826;86;25757;-81
2021/12/04 08:02:21;;;;;;;26.05;10.30;;;;;;;-1.67;60.49;96295.66;1671177;85;25692;-81
2021/12/04 08:04:48;;;;;;;23.45;9.33;;;;;;;-1.58;60.33;96301.33;1640486;87;26835;-81
2021/12/04 08:07:14;;;;;;;16.10;6.50;;;;;;;-1.48;59.97;96285.62;1624893;88;25774;-81
2021/12/04 08:09:41;;;;;;;15.43;6.90;;;;;;;-1.40;59.72;96298.02;1624880;88;26837;-81
2021/12/04 08:12:10;;;;;;;11.10;6.20;;;;;;;-1.31;59.35;96299.67;1625109;88;25780;-80
2021/12/04 08:14:38;;;;;;;11.33;5.60;;;;;;;-1.22;59.09;96294.73;1625196;88;25858;-81
2021/12/04 08:17:05;;;;;;;19.02;9.10;;;;;;;-1.14;58.87;96294.73;1625125;88;27921;-81
2021/12/04 08:19:32;;;;;;;11.63;6.22;;;;;;;-1.03;59.03;96276.84;1625163;88;25821;-80
2021/12/04 08:22:00;;;;;;;13.18;6.55;;;;;;;-0.86;59.55;96281.14;1625044;88;27366;-81
2021/12/04 08:24:27;;;;;;;12.45;5.70;;;;;;;-0.74;58.76;96274.50;1625053;87;25775;-81
2021/12/04 08:26:54;;;;;;;16.62;7.25;;;;;;;-0.73;58.13;96264.23;1625149;88;25698;-81
2021/12/04 08:29:20;;;;;;;21.50;8.13;;;;;;;-0.70;57.84;96265.19;1625115;88;26099;-81
2021/12/04 08:31:47;;;;;;;19.55;9.25;;;;;;;-0.65;57.70;96270.82;1625203;87;25746;-80
2021/12/04 08:34:15;;;;;;;18.00;8.73;;;;;;;-0.59;57.74;96272.78;1625107;88;27488;-80
2021/12/04 08:36:42;;;;;;;21.70;9.75;;;;;;;-0.52;57.62;96263.17;1625021;88;25763;-81
2021/12/04 08:39:09;;;;;;;18.15;9.03;;;;;;;-0.44;57.61;96255.67;1625173;88;25695;-81
2021/12/04 08:41:36;;;;;;;12.82;6.28;;;;;;;-0.40;57.26;96248.55;1625159;87;26133;-81
2021/12/04 08:44:03;;;;;;;12.53;6.05;;;;;;;-0.36;57.23;96252.48;1644492;86;25686;-80
2021/12/04 08:46:31;;;;;;;11.70;5.92;;;;;;;-0.30;56.91;96244.86;1653187;86;27418;-80
2021/12/04 08:48:58;;;;;;;12.10;6.20;;;;;;;-0.23;56.79;96248.45;1653116;86;25870;-80
2021/12/04 08:51:24;;;;;;;14.85;7.42;;;;;;;-0.17;56.80;96247.78;1653272;86;26419;-80
2021/12/04 08:53:52;;;;;;;24.05;9.35;;;;;;;-0.11;56.43;96246.58;1653263;86;26145;-80
2021/12/04 08:56:19;;;;;;;13.08;6.58;;;;;;;-0.05;56.50;96245.07;1653279;86;25769;-80
2021/12/04 08:58:46;;;;;;;10.95;5.78;;;;;;;-0.04;56.31;96243.58;1653329;86;27359;-80
2021/12/04 09:01:26;;;;;;;19.52;8.10;;;;;;;0.01;56.34;96248.34;1653295;86;25761;-80
2021/12/04 09:04:10;;;;;;;16.67;7.20;;;;;;;0.10;56.41;96245.16;1641790;85;25822;-81
2021/12/04 09:06:38;;;;;;;15.03;6.40;;;;;;;0.18;56.35;96241.95;1668707;85;25749;-80
2021/12/04 09:09:09;;;;;;;16.97;8.00;;;;;;;0.22;56.00;96237.96;1668984;84;25282;-80
2021/12/04 09:11:41;;;;;;;20.55;8.75;;;;;;;0.26;55.95;96231.77;1669265;85;28019;-80
2021/12/04 09:14:10;;;;;;;29.82;10.48;;;;;;;0.28;55.95;96229.28;1669114;84;26086;-80
2021/12/04 09:16:37;;;;;;;14.07;7.35;;;;;;;0.34;55.97;96227.27;1653497;86;25786;-80
2021/12/04 09:19:05;;;;;;;17.70;8.20;;;;;;;0.34;55.64;96220.63;1641738;87;26680;-80
2021/12/04 09:21:34;;;;;;;19.90;9.13;;;;;;;0.33;55.24;96216.31;1669036;85;25785;-80
2021/12/04 09:24:06;;;;;;;19.35;8.33;;;;;;;0.29;55.12;96214.18;1668957;85;28304;-80
2021/12/04 09:26:40;;;;;;;19.70;9.08;;;;;;;0.29;55.39;96215.01;1668288;85;25841;-80
2021/12/04 09:29:10;;;;;;;19.82;9.30;;;;;;;0.35;55.35;96216.97;1667114;85;25798;-80
2021/12/04 09:34:47;;;;;;;19.42;7.75;;;;;;;0.52;55.30;96218.16;1606825;89;25837;-80
2021/12/04 09:40:13;;;;;;;16.17;8.33;;;;;;;0.62;54.98;96212.09;1603954;87;28731;-80
2021/12/04 10:01:44;;;;;;;21.20;8.23;;;;;;;1.11;53.22;96177.10;1671364;85;25780;-79
2021/12/04 10:11:16;;;;;;;14.75;7.15;;;;;;;1.14;52.99;96167.44;1671535;85;25374;-80
2021/12/04 10:17:58;;;;;;;14.38;7.10;;;;;;;1.37;52.75;96137.59;1637991;87;27403;-80
2021/12/04 10:20:34;;;;;;;13.75;6.80;;;;;;;1.46;52.77;96135.14;1637670;87;25781;-79
2021/12/04 10:33:59;;;;;;;18.20;7.22;;;;;;;2.12;52.28;96113.28;1640189;87;25729;-80
2021/12/04 10:36:38;;;;;;;14.60;7.10;;;;;;;2.20;51.77;96115.80;1640465;87;25864;-80
2021/12/04 10:39:08;;;;;;;14.73;7.42;;;;;;;2.29;51.45;96118.67;1640557;87;26060;-80
2021/12/04 10:41:43;;;;;;;13.72;6.40;;;;;;;2.35;51.13;96111.23;1640501;87;25765;-80
2021/12/04 10:44:22;;;;;;;12.33;6.50;;;;;;;2.40;50.93;96105.34;1653789;85;27494;-80
2021/12/04 10:47:00;;;;;;;10.13;5.45;;;;;;;2.38;49.89;96096.22;1684975;85;26083;-80
2021/12/04 10:49:56;;;;;;;13.28;6.25;;;;;;;2.38;50.16;96092.22;1669431;85;25863;-80
2021/12/04 10:56:26;;;;;;;14.83;6.70;;;;;;;2.46;50.12;96085.41;1669557;85;25788;-80
2021/12/04 11:00:40;;;;;;;18.02;7.37;;;;;;;2.60;50.03;96074.86;1668800;85;25844;-80
2021/12/04 11:06:40;;;;;;;14.53;7.42;;;;;;;2.62;49.35;96074.16;1669344;85;26241;-80
2021/12/04 11:22:45;;;;;;;16.32;8.08;;;;;;;3.77;49.10;96029.76;1669416;85;25776;-80
2021/12/04 11:38:47;;;;;;;25.57;11.22;;;;;;;3.76;48.25;95998.75;1684996;85;27458;-80
2021/12/04 11:43:52;;;;;;;19.52;10.53;;;;;;;3.73;48.04;96003.19;1671985;83;25807;-81
2021/12/04 11:46:19;;;;;;;16.37;8.83;;;;;;;3.73;47.95;95996.52;1646700;87;25684;-80
2021/12/04 11:48:43;;;;;;;14.15;7.70;;;;;;;3.71;47.72;95997.22;1647113;86;26346;-81
2021/12/04 11:51:22;;;;;;;13.00;6.85;;;;;;;3.65;47.49;95990.02;1647055;87;27432;-81
2021/12/04 11:53:53;;;;;;;16.17;7.30;;;;;;;3.58;47.38;95991.34;1645603;87;25817;-80
2021/12/04 11:56:25;;;;;;;17.98;8.23;;;;;;;3.55;47.24;95994.92;1645649;87;25773;-81
2021/12/04 11:58:53;;;;;;;22.80;8.30;;;;;;;3.53;47.24;95979.11;1645981;87;34732;-80
2021/12/04 12:01:33;;;;;;;48.10;23.65;;;;;;;3.51;47.08;95966.48;1645677;86;25770;-80
2021/12/04 12:04:03;;;;;;;19.87;10.78;;;;;;;3.52;47.17;95965.97;1637137;87;29322;-80
2021/12/04 12:06:36;;;;;;;15.28;7.83;;;;;;;3.50;46.71;95966.70;1659167;86;25934;-80
2021/12/04 12:09:12;;;;;;;33.25;11.50;;;;;;;3.49;46.95;95953.87;1658656;86;25928;-80
2021/12/04 12:11:55;;;;;;;23.02;10.40;;;;;;;3.51;47.14;95958.98;1674359;85;26845;-80
2021/12/04 12:14:44;;;;;;;18.57;7.90;;;;;;;3.54;47.07;95959.92;1673954;84;43056;-81
2021/12/04 12:17:06;;;;;;;17.40;8.57;;;;;;;3.51;46.79;95962.98;1670190;85;27413;-81
2021/12/04 12:19:39;;;;;;;14.93;7.15;;;;;;;3.54;46.74;95961.26;1672455;84;25768;-82
2021/12/04 12:22:15;;;;;;;;;;;;;;;3.58;46.06;95957.99;1661443;86;25334;-81
2021/12/04 12:27:25;;;;;;;17.12;8.10;;;;;;;3.54;45.92;95951.92;1674384;84;25791;-81
2021/12/04 12:33:26;;;;;;;15.00;7.70;;;;;;;3.69;45.99;95951.23;1674272;85;25708;-81
2021/12/04 12:36:09;;;;;;;18.65;9.43;;;;;;;3.75;46.00;95954.41;1674235;85;25845;-81
2021/12/04 12:38:53;;;;;;;16.27;7.83;;;;;;;3.76;45.87;95953.89;1674441;85;26052;-81
2021/12/04 12:41:37;;;;;;;15.78;7.45;;;;;;;3.72;45.58;95946.00;1674334;84;25753;-80
2021/12/04 12:44:26;;;;;;;16.35;7.60;;;;;;;3.67;45.63;95938.60;1671957;84;27470;-80
2021/12/04 12:46:58;;;;;;;17.35;8.93;;;;;;;3.65;45.45;95950.49;1647063;85;26160;-80
2021/12/04 12:49:39;;;;;;;13.00;6.95;;;;;;;3.61;45.46;95946.09;1634207;85;25770;-80
2021/12/04 12:52:26;;;;;;;16.07;7.33;;;;;;;3.61;45.21;95934.09;1645655;87;26117;-80
2021/12/04 12:55:03;;;;;;;17.07;7.15;;;;;;;3.57;45.17;95935.52;1645843;87;25768;-80
2021/12/04 12:57:43;;;;;;;14.10;7.92;;;;;;;3.53;45.25;95935.60;1645813;86;27598;-80
2021/12/04 13:11:45;;;;;;;12.55;6.58;;;;;;;3.49;45.63;95935.72;1645523;87;27458;-80
2021/12/04 13:14:30;;;;;;;15.15;7.15;;;;;;;3.41;45.64;95930.55;1623926;87;27045;-81
2021/12/04 13:17:13;;;;;;;14.87;7.20;;;;;;;3.39;45.40;95932.09;1645798;87;25722;-81
2021/12/04 13:19:46;;;;;;;16.50;7.08;;;;;;;3.39;45.37;95925.42;1645827;87;26622;-81
2021/12/04 13:22:17;;;;;;;;;;;;;;;3.38;45.04;95925.64;1648302;86;25950;-80
2021/12/04 13:24:46;;;;;;;13.60;7.03;;;;;;;3.36;45.14;95917.02;1674637;85;27481;-80
2021/12/04 13:29:48;;;;;;;18.30;7.65;;;;;;;3.25;45.41;95911.77;1673067;85;25795;-81
2021/12/04 13:32:20;;;;;;;15.75;7.97;;;;;;;3.20;45.43;95911.03;1668214;85;27104;-81
2021/12/04 13:34:47;;;;;;;19.62;9.00;;;;;;;3.19;45.30;95904.05;1672484;85;26016;-81
2021/12/04 13:37:14;;;;;;;20.92;9.15;;;;;;;3.19;45.15;95912.05;1673153;85;28111;-81
2021/12/04 13:39:43;;;;;;;22.40;11.30;;;;;;;3.14;45.34;95903.83;1673001;85;25777;-81
2021/12/04 13:42:10;;;;;;;23.30;10.00;;;;;;;3.17;45.49;95907.42;1674449;84;25727;-81
2021/12/04 13:44:37;;;;;;;19.62;8.85;;;;;;;3.22;45.76;95910.32;1658489;85;26077;-81
2021/12/04 13:47:07;;;;;;;16.30;7.87;;;;;;;3.21;45.41;95910.02;1663498;86;25701;-81
2021/12/04 13:49:54;;;;;;;22.17;9.75;;;;;;;3.23;45.28;95911.14;1663569;86;27403;-81
2021/12/04 13:52:21;;;;;;;25.17;10.25;;;;;;;3.24;45.40;95906.95;1663481;86;25307;-81
2021/12/04 13:54:56;;;;;;;23.67;9.93;;;;;;;3.26;45.36;95906.21;1663912;84;25261;-81
2021/12/04 13:57:23;;;;;;;28.38;14.83;;;;;;;3.22;45.28;95914.33;1707087;84;26786;-81
2021/12/04 13:59:49;;;;;;;29.90;14.23;;;;;;;3.19;45.13;95914.72;1707177;83;25753;-81
2021/12/04 14:02:29;;;;;;;30.27;14.87;;;;;;;3.19;45.10;95912.56;1707195;83;27941;-81
2021/12/04 14:05:07;;;;;;;22.62;11.22;;;;;;;3.17;45.08;95917.27;1707090;83;25743;-81
2021/12/04 14:07:35;;;;;;;27.10;13.62;;;;;;;3.14;44.87;95909.70;1707173;84;25732;-81
2021/12/04 14:10:29;;;;;;;29.55;13.28;;;;;;;3.08;45.01;95925.14;1706901;83;26202;-81
2021/12/04 14:12:58;;;;;;;16.20;9.00;;;;;;;3.03;45.34;95924.91;1707160;83;25748;-81
2021/12/04 14:15:26;;;;;;;17.25;8.48;;;;;;;3.00;44.88;95926.16;1707116;84;28124;-81